sensor_id;sensor_type;location;lat;lon;timestamp;P1;durP1;ratioP1;P2;durP2;ratioP2
55573;SDS011;57533;39.460;-0.372;2022-09-09T00:01:43;3.65;;;2.03;;
55573;SDS011;57533;39.460;-0.372;2022-09-09T00:04:13;3.20;;;2.00;;
55573;SDS011;57533;39.460;-0.372;2022-09-09T00:06:44;2.08;;;1.50;;
55573;SDS011;57533;39.460;-0.372;2022-09-09T00:09:12;2.80;;;1.70;;
55573;SDS011;57533;39.460;-0.372;2022-09-09T00:14:45;4.20;;;1.92;;
55573;SDS011;57533;39.460;-0.372;2022-09-09T00:17:14;4.40;;;1.60;;
55573;SDS011;57533;39.460;-0.372;2022-09-09T00:19:46;6.10;;;1.63;;
55573;SDS011;57533;39.460;-0.372;2022-09-09T00:24:44;3.55;;;1.75;;
55573;SDS011;57533;39.460;-0.372;2022-09-09T00:27:19;5.45;;;1.83;;
55573;SDS011;57533;39.460;-0.372;2022-09-09T00:29:50;3.75;;;1.48;;
55573;SDS011;57533;39.460;-0.372;2022-09-09T00:32:18;5.47;;;1.75;;
55573;SDS011;57533;39.460;-0.372;2022-09-09T00:37:12;2.08;;;1.48;;
55573;SDS011;57533;39.460;-0.372;2022-09-09T00:39:38;2.15;;;1.30;;
55573;SDS011;57533;39.460;-0.372;2022-09-09T00:44:34;6.18;;;1.80;;
55573;SDS011;57533;39.460;-0.372;2022-09-09T00:47:19;2.95;;;1.45;;
55573;SDS011;57533;39.460;-0.372;2022-09-09T00:55:04;4.27;;;1.80;;
55573;SDS011;57533;39.460;-0.372;2022-09-09T00:57:32;3.75;;;2.03;;
55573;SDS011;57533;39.460;-0.372;2022-09-09T01:05:20;2.90;;;1.95;;
55573;SDS011;57533;39.460;-0.372;2022-09-09T01:07:47;3.42;;;1.70;;
55573;SDS011;57533;39.460;-0.372;2022-09-09T01:13:08;3.40;;;1.27;;
55573;SDS011;57533;39.460;-0.372;2022-09-09T01:15:38;2.53;;;1.50;;
55573;SDS011;57533;39.460;-0.372;2022-09-09T01:18:04;7.78;;;2.40;;
55573;SDS011;57533;39.460;-0.372;2022-09-09T01:26:10;5.45;;;3.38;;
55573;SDS011;57533;39.460;-0.372;2022-09-09T01:28:39;8.63;;;3.58;;
55573;SDS011;57533;39.460;-0.372;2022-09-09T01:31:05;9.90;;;3.40;;
55573;SDS011;57533;39.460;-0.372;2022-09-09T01:33:31;6.75;;;3.22;;
55573;SDS011;57533;39.460;-0.372;2022-09-09T01:35:59;8.63;;;3.83;;
55573;SDS011;57533;39.460;-0.372;2022-09-09T01:38:26;6.60;;;3.33;;
55573;SDS011;57533;39.460;-0.372;2022-09-09T01:40:51;4.15;;;2.65;;
55573;SDS011;57533;39.460;-0.372;2022-09-09T01:43:18;4.57;;;2.83;;
55573;SDS011;57533;39.460;-0.372;2022-09-09T01:45:43;8.05;;;3.03;;
55573;SDS011;57533;39.460;-0.372;2022-09-09T01:48:09;6.45;;;2.92;;
55573;SDS011;57533;39.460;-0.372;2022-09-09T01:50:34;4.18;;;2.10;;
55573;SDS011;57533;39.460;-0.372;2022-09-09T01:53:00;4.35;;;2.00;;
55573;SDS011;57533;39.460;-0.372;2022-09-09T01:55:28;3.28;;;2.35;;
55573;SDS011;57533;39.460;-0.372;2022-09-09T02:00:19;6.50;;;1.50;;
55573;SDS011;57533;39.460;-0.372;2022-09-09T02:12:55;2.85;;;1.30;;
55573;SDS011;57533;39.460;-0.372;2022-09-09T02:15:25;2.67;;;1.20;;
55573;SDS011;57533;39.460;-0.372;2022-09-09T02:17:51;7.93;;;1.60;;
55573;SDS011;57533;39.460;-0.372;2022-09-09T02:20:18;2.75;;;1.58;;
55573;SDS011;57533;39.460;-0.372;2022-09-09T02:22:43;6.20;;;1.55;;
55573;SDS011;57533;39.460;-0.372;2022-09-09T02:25:11;7.70;;;1.80;;
55573;SDS011;57533;39.460;-0.372;2022-09-09T02:27:38;4.95;;;1.55;;
55573;SDS011;57533;39.460;-0.372;2022-09-09T02:30:05;2.13;;;1.65;;
55573;SDS011;57533;39.460;-0.372;2022-09-09T02:32:32;6.30;;;1.50;;
55573;SDS011;57533;39.460;-0.372;2022-09-09T02:34:59;2.92;;;1.02;;
55573;SDS011;57533;39.460;-0.372;2022-09-09T02:37:27;2.38;;;1.40;;
55573;SDS011;57533;39.460;-0.372;2022-09-09T02:39:55;4.22;;;1.45;;
55573;SDS011;57533;39.460;-0.372;2022-09-09T02:42:20;3.50;;;1.40;;
55573;SDS011;57533;39.460;-0.372;2022-09-09T02:44:46;2.70;;;1.50;;
55573;SDS011;57533;39.460;-0.372;2022-09-09T02:47:29;3.38;;;1.10;;
55573;SDS011;57533;39.460;-0.372;2022-09-09T02:54:59;2.30;;;1.10;;
55573;SDS011;57533;39.460;-0.372;2022-09-09T02:57:28;1.80;;;1.23;;
55573;SDS011;57533;39.460;-0.372;2022-09-09T02:59:57;1.42;;;1.10;;
55573;SDS011;57533;39.460;-0.372;2022-09-09T03:02:22;1.73;;;1.17;;
55573;SDS011;57533;39.460;-0.372;2022-09-09T03:04:47;2.50;;;1.08;;
55573;SDS011;57533;39.460;-0.372;2022-09-09T03:07:16;2.85;;;1.45;;
55573;SDS011;57533;39.460;-0.372;2022-09-09T03:09:42;6.20;;;1.83;;
55573;SDS011;57533;39.460;-0.372;2022-09-09T03:12:08;5.65;;;1.38;;
55573;SDS011;57533;39.460;-0.372;2022-09-09T03:14:33;2.25;;;1.38;;
55573;SDS011;57533;39.460;-0.372;2022-09-09T03:16:58;3.20;;;1.33;;
55573;SDS011;57533;39.460;-0.372;2022-09-09T03:19:26;3.17;;;1.35;;
55573;SDS011;57533;39.460;-0.372;2022-09-09T03:21:52;3.50;;;1.67;;
55573;SDS011;57533;39.460;-0.372;2022-09-09T03:24:18;2.47;;;1.13;;
55573;SDS011;57533;39.460;-0.372;2022-09-09T03:26:43;4.45;;;1.55;;
55573;SDS011;57533;39.460;-0.372;2022-09-09T03:29:12;4.78;;;1.92;;
55573;SDS011;57533;39.460;-0.372;2022-09-09T03:31:38;1.95;;;1.30;;
55573;SDS011;57533;39.460;-0.372;2022-09-09T03:34:03;4.13;;;1.88;;
55573;SDS011;57533;39.460;-0.372;2022-09-09T03:36:28;5.43;;;1.27;;
55573;SDS011;57533;39.460;-0.372;2022-09-09T03:38:54;2.35;;;1.17;;
55573;SDS011;57533;39.460;-0.372;2022-09-09T03:41:20;6.03;;;1.23;;
55573;SDS011;57533;39.460;-0.372;2022-09-09T03:43:46;1.65;;;1.20;;
55573;SDS011;57533;39.460;-0.372;2022-09-09T03:46:11;3.03;;;1.23;;
55573;SDS011;57533;39.460;-0.372;2022-09-09T03:48:36;4.97;;;1.42;;
55573;SDS011;57533;39.460;-0.372;2022-09-09T03:51:02;2.45;;;1.23;;
55573;SDS011;57533;39.460;-0.372;2022-09-09T03:53:28;5.30;;;1.75;;
55573;SDS011;57533;39.460;-0.372;2022-09-09T03:55:54;3.45;;;1.67;;
55573;SDS011;57533;39.460;-0.372;2022-09-09T03:58:20;3.92;;;1.52;;
55573;SDS011;57533;39.460;-0.372;2022-09-09T04:00:59;7.97;;;2.28;;
55573;SDS011;57533;39.460;-0.372;2022-09-09T04:03:25;3.03;;;1.83;;
55573;SDS011;57533;39.460;-0.372;2022-09-09T04:05:51;3.28;;;1.75;;
55573;SDS011;57533;39.460;-0.372;2022-09-09T04:08:17;1.67;;;1.42;;
55573;SDS011;57533;39.460;-0.372;2022-09-09T04:10:44;3.47;;;1.83;;
55573;SDS011;57533;39.460;-0.372;2022-09-09T04:13:10;5.65;;;1.70;;
55573;SDS011;57533;39.460;-0.372;2022-09-09T04:15:37;3.65;;;1.65;;
55573;SDS011;57533;39.460;-0.372;2022-09-09T04:18:02;3.33;;;1.50;;
55573;SDS011;57533;39.460;-0.372;2022-09-09T04:20:28;2.83;;;1.42;;
55573;SDS011;57533;39.460;-0.372;2022-09-09T04:22:54;2.90;;;1.85;;
55573;SDS011;57533;39.460;-0.372;2022-09-09T04:25:19;5.97;;;1.60;;
55573;SDS011;57533;39.460;-0.372;2022-09-09T04:27:45;6.97;;;1.65;;
55573;SDS011;57533;39.460;-0.372;2022-09-09T04:30:10;3.22;;;1.60;;
55573;SDS011;57533;39.460;-0.372;2022-09-09T04:32:37;6.75;;;1.90;;
55573;SDS011;57533;39.460;-0.372;2022-09-09T04:35:02;4.25;;;1.35;;
55573;SDS011;57533;39.460;-0.372;2022-09-09T04:37:28;3.95;;;1.95;;
55573;SDS011;57533;39.460;-0.372;2022-09-09T04:39:53;2.78;;;1.50;;
55573;SDS011;57533;39.460;-0.372;2022-09-09T04:42:19;7.20;;;1.73;;
55573;SDS011;57533;39.460;-0.372;2022-09-09T04:44:44;2.97;;;1.80;;
55573;SDS011;57533;39.460;-0.372;2022-09-09T04:47:10;3.33;;;1.90;;
55573;SDS011;57533;39.460;-0.372;2022-09-09T04:49:35;3.10;;;2.05;;
55573;SDS011;57533;39.460;-0.372;2022-09-09T04:52:02;2.67;;;2.15;;
55573;SDS011;57533;39.460;-0.372;2022-09-09T04:54:27;4.78;;;2.03;;
55573;SDS011;57533;39.460;-0.372;2022-09-09T04:56:53;2.25;;;1.90;;
55573;SDS011;57533;39.460;-0.372;2022-09-09T04:59:19;6.20;;;2.33;;
55573;SDS011;57533;39.460;-0.372;2022-09-09T05:01:45;5.97;;;1.95;;
55573;SDS011;57533;39.460;-0.372;2022-09-09T05:04:10;8.18;;;2.72;;
55573;SDS011;57533;39.460;-0.372;2022-09-09T05:06:36;7.45;;;2.58;;
55573;SDS011;57533;39.460;-0.372;2022-09-09T05:09:02;6.65;;;2.88;;
55573;SDS011;57533;39.460;-0.372;2022-09-09T05:11:28;6.68;;;2.92;;
55573;SDS011;57533;39.460;-0.372;2022-09-09T05:13:55;2.67;;;2.22;;
55573;SDS011;57533;39.460;-0.372;2022-09-09T05:16:21;8.07;;;3.03;;
55573;SDS011;57533;39.460;-0.372;2022-09-09T05:18:47;7.38;;;2.65;;
55573;SDS011;57533;39.460;-0.372;2022-09-09T05:21:14;3.85;;;2.40;;
55573;SDS011;57533;39.460;-0.372;2022-09-09T05:23:40;5.65;;;2.47;;
55573;SDS011;57533;39.460;-0.372;2022-09-09T05:26:06;3.50;;;1.75;;
55573;SDS011;57533;39.460;-0.372;2022-09-09T05:28:33;5.60;;;2.45;;
55573;SDS011;57533;39.460;-0.372;2022-09-09T05:31:00;6.15;;;2.05;;
55573;SDS011;57533;39.460;-0.372;2022-09-09T05:33:29;5.05;;;2.03;;
55573;SDS011;57533;39.460;-0.372;2022-09-09T05:35:55;5.00;;;2.35;;
55573;SDS011;57533;39.460;-0.372;2022-09-09T05:38:21;5.15;;;2.38;;
55573;SDS011;57533;39.460;-0.372;2022-09-09T05:40:50;7.90;;;2.47;;
55573;SDS011;57533;39.460;-0.372;2022-09-09T05:43:15;6.25;;;2.20;;
55573;SDS011;57533;39.460;-0.372;2022-09-09T05:45:41;6.20;;;2.25;;
55573;SDS011;57533;39.460;-0.372;2022-09-09T05:48:06;9.43;;;2.78;;
55573;SDS011;57533;39.460;-0.372;2022-09-09T05:50:32;9.65;;;2.78;;
55573;SDS011;57533;39.460;-0.372;2022-09-09T05:52:58;5.70;;;2.75;;
55573;SDS011;57533;39.460;-0.372;2022-09-09T05:55:24;5.90;;;2.88;;
55573;SDS011;57533;39.460;-0.372;2022-09-09T05:57:50;12.57;;;2.83;;
55573;SDS011;57533;39.460;-0.372;2022-09-09T06:00:17;12.70;;;3.00;;
55573;SDS011;57533;39.460;-0.372;2022-09-09T06:02:42;6.00;;;2.67;;
55573;SDS011;57533;39.460;-0.372;2022-09-09T06:05:07;7.13;;;3.03;;
55573;SDS011;57533;39.460;-0.372;2022-09-09T06:07:33;9.65;;;3.30;;
55573;SDS011;57533;39.460;-0.372;2022-09-09T06:09:58;8.38;;;3.15;;
55573;SDS011;57533;39.460;-0.372;2022-09-09T06:12:25;7.65;;;2.47;;
55573;SDS011;57533;39.460;-0.372;2022-09-09T06:14:50;8.27;;;2.80;;
55573;SDS011;57533;39.460;-0.372;2022-09-09T06:17:16;6.57;;;2.63;;
55573;SDS011;57533;39.460;-0.372;2022-09-09T06:19:42;12.40;;;6.05;;
55573;SDS011;57533;39.460;-0.372;2022-09-09T06:22:07;8.25;;;2.88;;
55573;SDS011;57533;39.460;-0.372;2022-09-09T06:24:34;12.25;;;3.08;;
55573;SDS011;57533;39.460;-0.372;2022-09-09T06:26:59;7.90;;;3.28;;
55573;SDS011;57533;39.460;-0.372;2022-09-09T06:29:25;9.23;;;3.08;;
55573;SDS011;57533;39.460;-0.372;2022-09-09T06:31:50;9.50;;;3.08;;
55573;SDS011;57533;39.460;-0.372;2022-09-09T06:34:16;10.75;;;2.92;;
55573;SDS011;57533;39.460;-0.372;2022-09-09T06:36:41;15.55;;;3.80;;
55573;SDS011;57533;39.460;-0.372;2022-09-09T06:39:07;10.20;;;4.18;;
55573;SDS011;57533;39.460;-0.372;2022-09-09T06:41:33;12.93;;;3.95;;
55573;SDS011;57533;39.460;-0.372;2022-09-09T06:43:59;15.07;;;4.28;;
55573;SDS011;57533;39.460;-0.372;2022-09-09T06:46:25;12.68;;;3.70;;
55573;SDS011;57533;39.460;-0.372;2022-09-09T06:48:55;11.65;;;3.95;;
55573;SDS011;57533;39.460;-0.372;2022-09-09T06:51:23;10.95;;;3.75;;
55573;SDS011;57533;39.460;-0.372;2022-09-09T06:53:52;9.82;;;4.80;;
55573;SDS011;57533;39.460;-0.372;2022-09-09T06:58:43;10.45;;;3.63;;
55573;SDS011;57533;39.460;-0.372;2022-09-09T07:01:10;9.23;;;4.38;;
55573;SDS011;57533;39.460;-0.372;2022-09-09T07:03:37;11.90;;;3.90;;
55573;SDS011;57533;39.460;-0.372;2022-09-09T07:06:03;11.07;;;4.10;;
55573;SDS011;57533;39.460;-0.372;2022-09-09T07:08:29;8.23;;;4.20;;
55573;SDS011;57533;39.460;-0.372;2022-09-09T07:11:01;14.93;;;3.90;;
55573;SDS011;57533;39.460;-0.372;2022-09-09T07:13:26;8.73;;;4.35;;
55573;SDS011;57533;39.460;-0.372;2022-09-09T07:15:52;12.38;;;3.45;;
55573;SDS011;57533;39.460;-0.372;2022-09-09T07:18:18;6.88;;;3.45;;
55573;SDS011;57533;39.460;-0.372;2022-09-09T07:20:52;9.32;;;3.22;;
55573;SDS011;57533;39.460;-0.372;2022-09-09T07:25:45;10.25;;;4.13;;
55573;SDS011;57533;39.460;-0.372;2022-09-09T07:28:10;7.63;;;3.90;;
55573;SDS011;57533;39.460;-0.372;2022-09-09T07:30:36;5.55;;;3.45;;
55573;SDS011;57533;39.460;-0.372;2022-09-09T07:33:01;11.85;;;3.55;;
55573;SDS011;57533;39.460;-0.372;2022-09-09T07:35:28;10.43;;;3.40;;
55573;SDS011;57533;39.460;-0.372;2022-09-09T07:37:54;9.02;;;3.70;;
55573;SDS011;57533;39.460;-0.372;2022-09-09T07:40:19;6.75;;;3.90;;
55573;SDS011;57533;39.460;-0.372;2022-09-09T07:42:46;11.48;;;3.75;;
55573;SDS011;57533;39.460;-0.372;2022-09-09T07:45:12;4.55;;;2.83;;
55573;SDS011;57533;39.460;-0.372;2022-09-09T07:47:37;9.15;;;2.70;;
55573;SDS011;57533;39.460;-0.372;2022-09-09T07:50:02;21.92;;;3.50;;
55573;SDS011;57533;39.460;-0.372;2022-09-09T07:52:28;7.50;;;2.85;;
55573;SDS011;57533;39.460;-0.372;2022-09-09T07:54:53;6.95;;;3.08;;
55573;SDS011;57533;39.460;-0.372;2022-09-09T07:57:18;7.18;;;2.78;;
55573;SDS011;57533;39.460;-0.372;2022-09-09T07:59:44;8.98;;;2.67;;
55573;SDS011;57533;39.460;-0.372;2022-09-09T08:02:10;7.40;;;2.13;;
55573;SDS011;57533;39.460;-0.372;2022-09-09T08:04:36;2.80;;;2.28;;
55573;SDS011;57533;39.460;-0.372;2022-09-09T08:07:01;5.47;;;1.98;;
55573;SDS011;57533;39.460;-0.372;2022-09-09T08:09:28;3.55;;;2.10;;
55573;SDS011;57533;39.460;-0.372;2022-09-09T08:11:54;8.05;;;1.98;;
55573;SDS011;57533;39.460;-0.372;2022-09-09T08:14:21;5.97;;;2.20;;
55573;SDS011;57533;39.460;-0.372;2022-09-09T08:16:48;5.00;;;2.20;;
55573;SDS011;57533;39.460;-0.372;2022-09-09T08:19:14;10.07;;;2.38;;
55573;SDS011;57533;39.460;-0.372;2022-09-09T08:21:42;5.70;;;2.00;;
55573;SDS011;57533;39.460;-0.372;2022-09-09T08:24:09;4.03;;;1.80;;
55573;SDS011;57533;39.460;-0.372;2022-09-09T08:26:39;7.05;;;2.40;;
55573;SDS011;57533;39.460;-0.372;2022-09-09T08:29:05;8.52;;;2.08;;
55573;SDS011;57533;39.460;-0.372;2022-09-09T08:31:41;4.90;;;1.92;;
55573;SDS011;57533;39.460;-0.372;2022-09-09T08:34:07;5.53;;;1.92;;
55573;SDS011;57533;39.460;-0.372;2022-09-09T08:36:43;3.60;;;1.90;;
55573;SDS011;57533;39.460;-0.372;2022-09-09T08:39:09;5.70;;;1.95;;
55573;SDS011;57533;39.460;-0.372;2022-09-09T08:44:25;5.70;;;2.10;;
55573;SDS011;57533;39.460;-0.372;2022-09-09T08:52:13;8.38;;;2.08;;
55573;SDS011;57533;39.460;-0.372;2022-09-09T08:54:41;4.30;;;1.88;;
55573;SDS011;57533;39.460;-0.372;2022-09-09T08:57:07;7.03;;;1.83;;
55573;SDS011;57533;39.460;-0.372;2022-09-09T08:59:36;10.40;;;1.80;;
55573;SDS011;57533;39.460;-0.372;2022-09-09T09:07:09;9.02;;;2.70;;
55573;SDS011;57533;39.460;-0.372;2022-09-09T09:09:46;7.13;;;2.60;;
55573;SDS011;57533;39.460;-0.372;2022-09-09T09:12:18;4.18;;;1.95;;
55573;SDS011;57533;39.460;-0.372;2022-09-09T09:14:45;5.80;;;2.05;;
55573;SDS011;57533;39.460;-0.372;2022-09-09T09:17:12;6.75;;;2.95;;
55573;SDS011;57533;39.460;-0.372;2022-09-09T09:19:39;11.10;;;2.10;;
55573;SDS011;57533;39.460;-0.372;2022-09-09T09:24:44;3.78;;;2.28;;
55573;SDS011;57533;39.460;-0.372;2022-09-09T09:27:15;5.32;;;2.20;;
55573;SDS011;57533;39.460;-0.372;2022-09-09T09:29:43;8.23;;;2.78;;
55573;SDS011;57533;39.460;-0.372;2022-09-09T09:32:13;9.70;;;3.15;;
55573;SDS011;57533;39.460;-0.372;2022-09-09T09:34:39;6.97;;;3.22;;
55573;SDS011;57533;39.460;-0.372;2022-09-09T09:37:17;8.05;;;2.90;;
55573;SDS011;57533;39.460;-0.372;2022-09-09T09:39:45;7.70;;;2.90;;
55573;SDS011;57533;39.460;-0.372;2022-09-09T09:42:12;9.77;;;2.80;;
55573;SDS011;57533;39.460;-0.372;2022-09-09T09:44:40;12.93;;;2.85;;
55573;SDS011;57533;39.460;-0.372;2022-09-09T09:47:13;8.02;;;2.88;;
55573;SDS011;57533;39.460;-0.372;2022-09-09T09:49:39;6.63;;;2.50;;
55573;SDS011;57533;39.460;-0.372;2022-09-09T09:52:15;6.65;;;1.98;;
55573;SDS011;57533;39.460;-0.372;2022-09-09T09:54:43;7.60;;;2.30;;
55573;SDS011;57533;39.460;-0.372;2022-09-09T09:57:09;3.50;;;2.13;;
55573;SDS011;57533;39.460;-0.372;2022-09-09T09:59:35;12.27;;;3.58;;
55573;SDS011;57533;39.460;-0.372;2022-09-09T10:04:38;6.10;;;2.83;;
55573;SDS011;57533;39.460;-0.372;2022-09-09T10:07:15;12.55;;;3.15;;
55573;SDS011;57533;39.460;-0.372;2022-09-09T10:09:42;9.18;;;2.97;;
55573;SDS011;57533;39.460;-0.372;2022-09-09T10:12:20;7.68;;;3.83;;
55573;SDS011;57533;39.460;-0.372;2022-09-09T10:20:16;8.45;;;3.33;;
55573;SDS011;57533;39.460;-0.372;2022-09-09T10:22:51;11.02;;;3.00;;
55573;SDS011;57533;39.460;-0.372;2022-09-09T10:28:07;9.20;;;2.85;;
55573;SDS011;57533;39.460;-0.372;2022-09-09T10:30:41;7.65;;;2.97;;
55573;SDS011;57533;39.460;-0.372;2022-09-09T10:33:21;6.07;;;3.03;;
55573;SDS011;57533;39.460;-0.372;2022-09-09T10:53:36;3.63;;;1.55;;
55573;SDS011;57533;39.460;-0.372;2022-09-09T10:56:07;2.67;;;1.33;;
55573;SDS011;57533;39.460;-0.372;2022-09-09T10:59:09;2.30;;;1.08;;
55573;SDS011;57533;39.460;-0.372;2022-09-09T11:01:26;3.92;;;1.70;;
55573;SDS011;57533;39.460;-0.372;2022-09-09T11:03:55;3.85;;;1.42;;
55573;SDS011;57533;39.460;-0.372;2022-09-09T11:06:22;3.25;;;1.20;;
55573;SDS011;57533;39.460;-0.372;2022-09-09T11:08:50;8.18;;;1.50;;
55573;SDS011;57533;39.460;-0.372;2022-09-09T11:11:25;9.00;;;1.88;;
55573;SDS011;57533;39.460;-0.372;2022-09-09T11:18:44;2.25;;;1.10;;
55573;SDS011;57533;39.460;-0.372;2022-09-09T11:21:33;3.85;;;1.38;;
55573;SDS011;57533;39.460;-0.372;2022-09-09T11:26:53;3.47;;;1.50;;
55573;SDS011;57533;39.460;-0.372;2022-09-09T11:29:28;4.50;;;1.60;;
55573;SDS011;57533;39.460;-0.372;2022-09-09T11:44:39;6.43;;;1.63;;
55573;SDS011;57533;39.460;-0.372;2022-09-09T11:47:16;1.88;;;1.20;;
55573;SDS011;57533;39.460;-0.372;2022-09-09T11:49:44;8.93;;;2.58;;
55573;SDS011;57533;39.460;-0.372;2022-09-09T11:52:24;3.65;;;1.52;;
55573;SDS011;57533;39.460;-0.372;2022-09-09T11:54:51;5.38;;;1.60;;
55573;SDS011;57533;39.460;-0.372;2022-09-09T11:57:30;6.75;;;1.80;;
55573;SDS011;57533;39.460;-0.372;2022-09-09T11:59:57;5.57;;;1.63;;
55573;SDS011;57533;39.460;-0.372;2022-09-09T12:02:24;8.57;;;1.58;;
55573;SDS011;57533;39.460;-0.372;2022-09-09T12:04:55;2.85;;;1.30;;
55573;SDS011;57533;39.460;-0.372;2022-09-09T12:09:52;4.60;;;1.70;;
55573;SDS011;57533;39.460;-0.372;2022-09-09T12:12:28;4.20;;;1.90;;
55573;SDS011;57533;39.460;-0.372;2022-09-09T12:17:20;4.53;;;1.20;;
55573;SDS011;57533;39.460;-0.372;2022-09-09T12:19:46;3.22;;;1.58;;
55573;SDS011;57533;39.460;-0.372;2022-09-09T12:22:15;3.70;;;1.55;;
55573;SDS011;57533;39.460;-0.372;2022-09-09T12:24:59;2.65;;;1.60;;
55573;SDS011;57533;39.460;-0.372;2022-09-09T12:27:34;5.50;;;1.48;;
55573;SDS011;57533;39.460;-0.372;2022-09-09T12:30:03;2.38;;;1.85;;
55573;SDS011;57533;39.460;-0.372;2022-09-09T12:32:29;3.30;;;1.38;;
55573;SDS011;57533;39.460;-0.372;2022-09-09T12:35:09;3.40;;;1.35;;
55573;SDS011;57533;39.460;-0.372;2022-09-09T12:37:37;4.00;;;0.95;;
55573;SDS011;57533;39.460;-0.372;2022-09-09T12:40:06;2.13;;;1.00;;
55573;SDS011;57533;39.460;-0.372;2022-09-09T12:42:32;3.15;;;0.90;;
55573;SDS011;57533;39.460;-0.372;2022-09-09T12:45:01;1.10;;;0.80;;
55573;SDS011;57533;39.460;-0.372;2022-09-09T12:47:38;3.97;;;1.27;;
55573;SDS011;57533;39.460;-0.372;2022-09-09T12:50:14;2.17;;;0.60;;
55573;SDS011;57533;39.460;-0.372;2022-09-09T12:52:40;1.77;;;0.80;;
55573;SDS011;57533;39.460;-0.372;2022-09-09T12:55:05;0.93;;;0.75;;
55573;SDS011;57533;39.460;-0.372;2022-09-09T12:57:35;1.13;;;0.73;;
55573;SDS011;57533;39.460;-0.372;2022-09-09T13:00:06;1.55;;;0.95;;
55573;SDS011;57533;39.460;-0.372;2022-09-09T13:02:33;0.82;;;0.60;;
55573;SDS011;57533;39.460;-0.372;2022-09-09T13:05:15;0.88;;;0.82;;
55573;SDS011;57533;39.460;-0.372;2022-09-09T13:07:41;2.10;;;0.90;;
55573;SDS011;57533;39.460;-0.372;2022-09-09T13:10:10;2.63;;;0.85;;
55573;SDS011;57533;39.460;-0.372;2022-09-09T13:12:36;1.98;;;0.85;;
55573;SDS011;57533;39.460;-0.372;2022-09-09T13:15:01;1.52;;;1.10;;
55573;SDS011;57533;39.460;-0.372;2022-09-09T13:17:27;2.38;;;0.90;;
55573;SDS011;57533;39.460;-0.372;2022-09-09T13:19:55;1.55;;;0.70;;
55573;SDS011;57533;39.460;-0.372;2022-09-09T13:27:31;2.60;;;0.47;;
55573;SDS011;57533;39.460;-0.372;2022-09-09T13:29:58;0.82;;;0.80;;
55573;SDS011;57533;39.460;-0.372;2022-09-09T13:32:24;2.13;;;0.60;;
55573;SDS011;57533;39.460;-0.372;2022-09-09T13:34:55;1.50;;;0.65;;
55573;SDS011;57533;39.460;-0.372;2022-09-09T13:37:32;4.97;;;0.77;;
55573;SDS011;57533;39.460;-0.372;2022-09-09T13:39:58;2.72;;;0.70;;
55573;SDS011;57533;39.460;-0.372;2022-09-09T13:42:27;1.98;;;0.80;;
55573;SDS011;57533;39.460;-0.372;2022-09-09T13:44:53;3.75;;;1.30;;
55573;SDS011;57533;39.460;-0.372;2022-09-09T13:47:36;3.97;;;1.10;;
55573;SDS011;57533;39.460;-0.372;2022-09-09T13:50:18;4.25;;;0.80;;
55573;SDS011;57533;39.460;-0.372;2022-09-09T13:52:44;7.20;;;1.00;;
55573;SDS011;57533;39.460;-0.372;2022-09-09T13:55:09;1.00;;;0.63;;
55573;SDS011;57533;39.460;-0.372;2022-09-09T13:57:35;0.93;;;0.80;;
55573;SDS011;57533;39.460;-0.372;2022-09-09T14:00:00;2.15;;;0.65;;
55573;SDS011;57533;39.460;-0.372;2022-09-09T14:02:26;3.65;;;0.77;;
55573;SDS011;57533;39.460;-0.372;2022-09-09T14:04:51;3.38;;;0.93;;
55573;SDS011;57533;39.460;-0.372;2022-09-09T14:07:20;2.28;;;1.42;;
55573;SDS011;57533;39.460;-0.372;2022-09-09T14:09:45;1.75;;;0.60;;
55573;SDS011;57533;39.460;-0.372;2022-09-09T14:12:14;5.30;;;0.60;;
55573;SDS011;57533;39.460;-0.372;2022-09-09T14:14:40;3.03;;;0.88;;
55573;SDS011;57533;39.460;-0.372;2022-09-09T14:17:07;1.55;;;0.80;;
55573;SDS011;57533;39.460;-0.372;2022-09-09T14:19:32;5.20;;;1.10;;
55573;SDS011;57533;39.460;-0.372;2022-09-09T14:21:58;1.38;;;0.82;;
55573;SDS011;57533;39.460;-0.372;2022-09-09T14:24:23;2.05;;;1.35;;
55573;SDS011;57533;39.460;-0.372;2022-09-09T14:26:50;2.42;;;0.90;;
55573;SDS011;57533;39.460;-0.372;2022-09-09T14:29:15;2.95;;;0.80;;
55573;SDS011;57533;39.460;-0.372;2022-09-09T14:31:40;0.93;;;0.50;;
55573;SDS011;57533;39.460;-0.372;2022-09-09T14:34:06;1.67;;;1.17;;
55573;SDS011;57533;39.460;-0.372;2022-09-09T14:36:31;0.93;;;0.90;;
55573;SDS011;57533;39.460;-0.372;2022-09-09T14:38:57;2.22;;;0.98;;
55573;SDS011;57533;39.460;-0.372;2022-09-09T14:41:22;1.30;;;1.20;;
55573;SDS011;57533;39.460;-0.372;2022-09-09T14:43:48;2.83;;;1.50;;
55573;SDS011;57533;39.460;-0.372;2022-09-09T14:46:15;4.95;;;1.20;;
55573;SDS011;57533;39.460;-0.372;2022-09-09T14:48:40;1.85;;;1.50;;
55573;SDS011;57533;39.460;-0.372;2022-09-09T14:51:10;2.10;;;1.40;;
55573;SDS011;57533;39.460;-0.372;2022-09-09T14:53:35;6.32;;;1.85;;
55573;SDS011;57533;39.460;-0.372;2022-09-09T14:56:05;2.03;;;1.50;;
55573;SDS011;57533;39.460;-0.372;2022-09-09T14:58:31;1.70;;;1.60;;
55573;SDS011;57533;39.460;-0.372;2022-09-09T15:01:01;5.97;;;1.42;;
55573;SDS011;57533;39.460;-0.372;2022-09-09T15:03:26;6.75;;;1.80;;
55573;SDS011;57533;39.460;-0.372;2022-09-09T15:05:52;4.68;;;1.42;;
55573;SDS011;57533;39.460;-0.372;2022-09-09T15:08:17;8.25;;;1.45;;
55573;SDS011;57533;39.460;-0.372;2022-09-09T15:10:42;2.22;;;1.48;;
55573;SDS011;57533;39.460;-0.372;2022-09-09T15:13:09;5.05;;;1.70;;
55573;SDS011;57533;39.460;-0.372;2022-09-09T15:15:35;4.57;;;1.58;;
55573;SDS011;57533;39.460;-0.372;2022-09-09T15:18:00;5.18;;;1.48;;
55573;SDS011;57533;39.460;-0.372;2022-09-09T15:20:25;2.30;;;1.50;;
55573;SDS011;57533;39.460;-0.372;2022-09-09T15:22:50;3.97;;;1.50;;
55573;SDS011;57533;39.460;-0.372;2022-09-09T15:25:17;2.85;;;1.17;;
55573;SDS011;57533;39.460;-0.372;2022-09-09T15:27:43;5.10;;;1.02;;
55573;SDS011;57533;39.460;-0.372;2022-09-09T15:30:09;3.80;;;1.30;;
55573;SDS011;57533;39.460;-0.372;2022-09-09T15:32:35;3.20;;;1.20;;
55573;SDS011;57533;39.460;-0.372;2022-09-09T15:35:00;6.68;;;1.73;;
55573;SDS011;57533;39.460;-0.372;2022-09-09T15:37:26;3.42;;;1.13;;
55573;SDS011;57533;39.460;-0.372;2022-09-09T15:39:51;2.05;;;0.95;;
55573;SDS011;57533;39.460;-0.372;2022-09-09T15:42:17;3.13;;;1.40;;
55573;SDS011;57533;39.460;-0.372;2022-09-09T15:44:42;2.78;;;1.05;;
55573;SDS011;57533;39.460;-0.372;2022-09-09T15:47:09;5.43;;;1.23;;
55573;SDS011;57533;39.460;-0.372;2022-09-09T15:49:35;4.70;;;1.30;;
55573;SDS011;57533;39.460;-0.372;2022-09-09T15:52:00;2.55;;;1.20;;
55573;SDS011;57533;39.460;-0.372;2022-09-09T15:54:33;3.03;;;1.60;;
55573;SDS011;57533;39.460;-0.372;2022-09-09T15:57:01;2.97;;;1.33;;
55573;SDS011;57533;39.460;-0.372;2022-09-09T15:59:27;3.63;;;1.23;;
55573;SDS011;57533;39.460;-0.372;2022-09-09T16:01:53;3.33;;;1.23;;
55573;SDS011;57533;39.460;-0.372;2022-09-09T16:04:19;4.68;;;1.58;;
55573;SDS011;57533;39.460;-0.372;2022-09-09T16:06:48;1.80;;;1.55;;
55573;SDS011;57533;39.460;-0.372;2022-09-09T16:09:15;2.03;;;1.23;;
55573;SDS011;57533;39.460;-0.372;2022-09-09T16:11:40;1.83;;;1.20;;
55573;SDS011;57533;39.460;-0.372;2022-09-09T16:14:05;3.53;;;1.15;;
55573;SDS011;57533;39.460;-0.372;2022-09-09T16:16:31;2.15;;;1.15;;
55573;SDS011;57533;39.460;-0.372;2022-09-09T16:18:58;2.22;;;1.10;;
55573;SDS011;57533;39.460;-0.372;2022-09-09T16:21:26;2.65;;;1.75;;
55573;SDS011;57533;39.460;-0.372;2022-09-09T16:23:54;3.53;;;1.50;;
55573;SDS011;57533;39.460;-0.372;2022-09-09T16:26:19;2.78;;;1.05;;
55573;SDS011;57533;39.460;-0.372;2022-09-09T16:28:45;3.72;;;1.23;;
55573;SDS011;57533;39.460;-0.372;2022-09-09T16:31:21;3.05;;;1.08;;
55573;SDS011;57533;39.460;-0.372;2022-09-09T16:33:47;2.35;;;0.95;;
55573;SDS011;57533;39.460;-0.372;2022-09-09T16:36:13;7.88;;;1.65;;
55573;SDS011;57533;39.460;-0.372;2022-09-09T16:38:39;4.22;;;1.17;;
55573;SDS011;57533;39.460;-0.372;2022-09-09T16:41:05;8.13;;;1.30;;
55573;SDS011;57533;39.460;-0.372;2022-09-09T16:43:34;3.85;;;1.40;;